sensor_id;sensor_type;location;lat;lon;timestamp;P1;durP1;ratioP1;P2;durP2;ratioP2
22270;SDS011;11304;53.520;10.104;2023-05-07T00:01:59;15.32;;;11.95;;
22270;SDS011;11304;53.520;10.104;2023-05-07T00:04:25;15.73;;;12.80;;
22270;SDS011;11304;53.520;10.104;2023-05-07T00:06:51;15.20;;;12.52;;
22270;SDS011;11304;53.520;10.104;2023-05-07T00:09:17;16.48;;;13.35;;
22270;SDS011;11304;53.520;10.104;2023-05-07T00:11:44;14.77;;;12.07;;
22270;SDS011;11304;53.520;10.104;2023-05-07T00:14:10;15.63;;;12.43;;
22270;SDS011;11304;53.520;10.104;2023-05-07T00:16:36;16.50;;;12.65;;
22270;SDS011;11304;53.520;10.104;2023-05-07T00:19:02;16.70;;;12.82;;
22270;SDS011;11304;53.520;10.104;2023-05-07T00:21:28;14.77;;;12.60;;
22270;SDS011;11304;53.520;10.104;2023-05-07T00:23:55;16.42;;;12.45;;
22270;SDS011;11304;53.520;10.104;2023-05-07T00:26:21;15.27;;;12.43;;
22270;SDS011;11304;53.520;10.104;2023-05-07T00:28:47;15.18;;;11.75;;
22270;SDS011;11304;53.520;10.104;2023-05-07T00:31:13;14.38;;;11.45;;
22270;SDS011;11304;53.520;10.104;2023-05-07T00:33:40;17.08;;;12.40;;
22270;SDS011;11304;53.520;10.104;2023-05-07T00:36:06;13.02;;;11.05;;
22270;SDS011;11304;53.520;10.104;2023-05-07T00:38:32;13.27;;;11.57;;
22270;SDS011;11304;53.520;10.104;2023-05-07T00:40:58;12.88;;;10.60;;
22270;SDS011;11304;53.520;10.104;2023-05-07T00:43:24;14.32;;;11.05;;
22270;SDS011;11304;53.520;10.104;2023-05-07T00:45:50;13.90;;;10.88;;
22270;SDS011;11304;53.520;10.104;2023-05-07T00:48:17;14.15;;;11.02;;
22270;SDS011;11304;53.520;10.104;2023-05-07T00:50:44;13.65;;;10.45;;
22270;SDS011;11304;53.520;10.104;2023-05-07T00:53:10;14.15;;;10.98;;
22270;SDS011;11304;53.520;10.104;2023-05-07T00:55:37;14.45;;;11.20;;
22270;SDS011;11304;53.520;10.104;2023-05-07T00:58:03;15.60;;;10.95;;
22270;SDS011;11304;53.520;10.104;2023-05-07T01:00:29;14.10;;;11.10;;
22270;SDS011;11304;53.520;10.104;2023-05-07T01:02:56;12.35;;;10.60;;
22270;SDS011;11304;53.520;10.104;2023-05-07T01:05:22;16.40;;;11.13;;
22270;SDS011;11304;53.520;10.104;2023-05-07T01:07:49;11.57;;;9.43;;
22270;SDS011;11304;53.520;10.104;2023-05-07T01:10:15;12.77;;;9.73;;
22270;SDS011;11304;53.520;10.104;2023-05-07T01:12:43;14.25;;;8.85;;
22270;SDS011;11304;53.520;10.104;2023-05-07T01:15:10;12.93;;;9.45;;
22270;SDS011;11304;53.520;10.104;2023-05-07T01:17:37;11.93;;;9.05;;
22270;SDS011;11304;53.520;10.104;2023-05-07T01:20:04;11.10;;;8.88;;
22270;SDS011;11304;53.520;10.104;2023-05-07T01:22:34;12.32;;;9.75;;
22270;SDS011;11304;53.520;10.104;2023-05-07T01:25:01;11.25;;;9.70;;
22270;SDS011;11304;53.520;10.104;2023-05-07T01:27:28;10.73;;;9.52;;
22270;SDS011;11304;53.520;10.104;2023-05-07T01:29:54;13.15;;;9.05;;
22270;SDS011;11304;53.520;10.104;2023-05-07T01:32:29;14.63;;;9.68;;
22270;SDS011;11304;53.520;10.104;2023-05-07T01:34:57;12.50;;;9.60;;
22270;SDS011;11304;53.520;10.104;2023-05-07T01:37:23;11.05;;;9.23;;
22270;SDS011;11304;53.520;10.104;2023-05-07T01:39:50;10.73;;;9.27;;
22270;SDS011;11304;53.520;10.104;2023-05-07T01:42:16;11.77;;;9.32;;
22270;SDS011;11304;53.520;10.104;2023-05-07T01:44:42;12.55;;;10.30;;
22270;SDS011;11304;53.520;10.104;2023-05-07T01:47:08;11.25;;;9.15;;
22270;SDS011;11304;53.520;10.104;2023-05-07T01:49:35;11.07;;;9.23;;
22270;SDS011;11304;53.520;10.104;2023-05-07T01:52:01;11.60;;;9.50;;
22270;SDS011;11304;53.520;10.104;2023-05-07T01:54:27;10.07;;;8.95;;
22270;SDS011;11304;53.520;10.104;2023-05-07T01:56:54;10.65;;;9.27;;
22270;SDS011;11304;53.520;10.104;2023-05-07T01:59:20;10.38;;;8.68;;
22270;SDS011;11304;53.520;10.104;2023-05-07T02:01:47;10.88;;;9.18;;
22270;SDS011;11304;53.520;10.104;2023-05-07T02:04:13;13.32;;;10.07;;
22270;SDS011;11304;53.520;10.104;2023-05-07T02:06:39;12.30;;;9.38;;
22270;SDS011;11304;53.520;10.104;2023-05-07T02:09:05;10.50;;;9.35;;
22270;SDS011;11304;53.520;10.104;2023-05-07T02:11:31;10.45;;;9.18;;
22270;SDS011;11304;53.520;10.104;2023-05-07T02:13:57;11.55;;;9.65;;
22270;SDS011;11304;53.520;10.104;2023-05-07T02:16:23;11.55;;;9.50;;
22270;SDS011;11304;53.520;10.104;2023-05-07T02:18:49;12.98;;;8.93;;
22270;SDS011;11304;53.520;10.104;2023-05-07T02:21:16;12.60;;;9.52;;
22270;SDS011;11304;53.520;10.104;2023-05-07T02:23:42;12.82;;;9.73;;
22270;SDS011;11304;53.520;10.104;2023-05-07T02:26:08;11.85;;;9.40;;
22270;SDS011;11304;53.520;10.104;2023-05-07T02:28:34;12.88;;;10.15;;
22270;SDS011;11304;53.520;10.104;2023-05-07T02:31:03;11.75;;;9.00;;
22270;SDS011;11304;53.520;10.104;2023-05-07T02:33:29;13.25;;;10.23;;
22270;SDS011;11304;53.520;10.104;2023-05-07T02:35:55;14.32;;;9.85;;
22270;SDS011;11304;53.520;10.104;2023-05-07T02:38:22;11.88;;;9.02;;
22270;SDS011;11304;53.520;10.104;2023-05-07T02:40:48;11.95;;;9.15;;
22270;SDS011;11304;53.520;10.104;2023-05-07T02:43:14;11.23;;;8.63;;
22270;SDS011;11304;53.520;10.104;2023-05-07T02:45:40;12.98;;;9.68;;
22270;SDS011;11304;53.520;10.104;2023-05-07T02:48:08;13.27;;;9.98;;
22270;SDS011;11304;53.520;10.104;2023-05-07T02:50:34;12.52;;;8.98;;
22270;SDS011;11304;53.520;10.104;2023-05-07T02:53:00;12.73;;;10.05;;
22270;SDS011;11304;53.520;10.104;2023-05-07T02:55:26;12.63;;;9.40;;
22270;SDS011;11304;53.520;10.104;2023-05-07T02:57:52;13.50;;;9.90;;
22270;SDS011;11304;53.520;10.104;2023-05-07T03:00:19;14.73;;;10.88;;
22270;SDS011;11304;53.520;10.104;2023-05-07T03:02:45;13.88;;;10.80;;
22270;SDS011;11304;53.520;10.104;2023-05-07T03:05:11;13.95;;;11.20;;
22270;SDS011;11304;53.520;10.104;2023-05-07T03:07:39;14.77;;;11.00;;
22270;SDS011;11304;53.520;10.104;2023-05-07T03:10:09;14.32;;;11.35;;
22270;SDS011;11304;53.520;10.104;2023-05-07T03:12:35;14.20;;;10.95;;
22270;SDS011;11304;53.520;10.104;2023-05-07T03:15:01;13.43;;;11.23;;
22270;SDS011;11304;53.520;10.104;2023-05-07T03:17:27;14.40;;;10.48;;
22270;SDS011;11304;53.520;10.104;2023-05-07T03:19:53;13.25;;;10.90;;
22270;SDS011;11304;53.520;10.104;2023-05-07T03:22:19;16.08;;;11.70;;
22270;SDS011;11304;53.520;10.104;2023-05-07T03:24:45;16.02;;;10.82;;
22270;SDS011;11304;53.520;10.104;2023-05-07T03:27:12;14.02;;;10.55;;
22270;SDS011;11304;53.520;10.104;2023-05-07T03:29:38;14.23;;;10.50;;
22270;SDS011;11304;53.520;10.104;2023-05-07T03:32:04;12.10;;;9.43;;
22270;SDS011;11304;53.520;10.104;2023-05-07T03:34:31;14.55;;;10.70;;
22270;SDS011;11304;53.520;10.104;2023-05-07T03:36:57;11.60;;;9.93;;
22270;SDS011;11304;53.520;10.104;2023-05-07T03:39:23;13.18;;;9.98;;
22270;SDS011;11304;53.520;10.104;2023-05-07T03:41:49;12.07;;;9.77;;
22270;SDS011;11304;53.520;10.104;2023-05-07T03:44:15;13.23;;;10.35;;
22270;SDS011;11304;53.520;10.104;2023-05-07T03:46:41;11.88;;;9.52;;
22270;SDS011;11304;53.520;10.104;2023-05-07T03:49:07;11.88;;;9.82;;
22270;SDS011;11304;53.520;10.104;2023-05-07T03:51:33;12.52;;;9.95;;
22270;SDS011;11304;53.520;10.104;2023-05-07T03:54:01;11.90;;;10.50;;
22270;SDS011;11304;53.520;10.104;2023-05-07T03:56:27;13.50;;;10.80;;
22270;SDS011;11304;53.520;10.104;2023-05-07T03:58:53;13.50;;;10.10;;
22270;SDS011;11304;53.520;10.104;2023-05-07T04:01:19;11.63;;;9.55;;
22270;SDS011;11304;53.520;10.104;2023-05-07T04:03:45;15.20;;;10.13;;
22270;SDS011;11304;53.520;10.104;2023-05-07T04:06:12;13.40;;;10.82;;
22270;SDS011;11304;53.520;10.104;2023-05-07T04:08:38;12.10;;;10.20;;
22270;SDS011;11304;53.520;10.104;2023-05-07T04:11:04;11.73;;;10.07;;
22270;SDS011;11304;53.520;10.104;2023-05-07T04:13:30;13.43;;;10.45;;
22270;SDS011;11304;53.520;10.104;2023-05-07T04:15:56;12.90;;;10.30;;
22270;SDS011;11304;53.520;10.104;2023-05-07T04:18:22;12.27;;;9.55;;
22270;SDS011;11304;53.520;10.104;2023-05-07T04:20:48;13.75;;;9.70;;
22270;SDS011;11304;53.520;10.104;2023-05-07T04:23:15;13.30;;;9.65;;
22270;SDS011;11304;53.520;10.104;2023-05-07T04:25:41;12.25;;;9.85;;
22270;SDS011;11304;53.520;10.104;2023-05-07T04:28:07;13.23;;;9.40;;
22270;SDS011;11304;53.520;10.104;2023-05-07T04:30:33;11.65;;;9.15;;
22270;SDS011;11304;53.520;10.104;2023-05-07T04:32:59;12.20;;;9.23;;
22270;SDS011;11304;53.520;10.104;2023-05-07T04:35:26;11.07;;;9.13;;
22270;SDS011;11304;53.520;10.104;2023-05-07T04:37:52;11.88;;;8.68;;
22270;SDS011;11304;53.520;10.104;2023-05-07T04:40:18;10.57;;;8.77;;
22270;SDS011;11304;53.520;10.104;2023-05-07T04:42:44;14.57;;;9.30;;
22270;SDS011;11304;53.520;10.104;2023-05-07T04:45:10;13.27;;;9.63;;
22270;SDS011;11304;53.520;10.104;2023-05-07T04:47:37;12.05;;;8.60;;
22270;SDS011;11304;53.520;10.104;2023-05-07T04:50:04;11.32;;;8.35;;
22270;SDS011;11304;53.520;10.104;2023-05-07T04:52:30;10.48;;;8.75;;
22270;SDS011;11304;53.520;10.104;2023-05-07T04:54:58;13.77;;;8.75;;
22270;SDS011;11304;53.520;10.104;2023-05-07T04:57:25;11.45;;;8.40;;
22270;SDS011;11304;53.520;10.104;2023-05-07T04:59:51;10.20;;;7.95;;
22270;SDS011;11304;53.520;10.104;2023-05-07T05:02:17;12.93;;;8.82;;
22270;SDS011;11304;53.520;10.104;2023-05-07T05:04:43;10.00;;;8.27;;
22270;SDS011;11304;53.520;10.104;2023-05-07T05:07:09;11.40;;;7.90;;
22270;SDS011;11304;53.520;10.104;2023-05-07T05:09:36;10.68;;;8.63;;
22270;SDS011;11304;53.520;10.104;2023-05-07T05:12:02;11.25;;;8.90;;
22270;SDS011;11304;53.520;10.104;2023-05-07T05:14:28;11.45;;;8.55;;
22270;SDS011;11304;53.520;10.104;2023-05-07T05:16:54;10.70;;;8.57;;
22270;SDS011;11304;53.520;10.104;2023-05-07T05:19:21;10.32;;;8.00;;
22270;SDS011;11304;53.520;10.104;2023-05-07T05:21:47;11.30;;;8.43;;
22270;SDS011;11304;53.520;10.104;2023-05-07T05:24:13;12.70;;;8.70;;
22270;SDS011;11304;53.520;10.104;2023-05-07T05:26:40;13.82;;;8.65;;
22270;SDS011;11304;53.520;10.104;2023-05-07T05:29:06;11.15;;;8.90;;
22270;SDS011;11304;53.520;10.104;2023-05-07T05:31:32;10.82;;;8.90;;
22270;SDS011;11304;53.520;10.104;2023-05-07T05:33:58;11.43;;;9.25;;
22270;SDS011;11304;53.520;10.104;2023-05-07T05:36:25;12.65;;;8.73;;
22270;SDS011;11304;53.520;10.104;2023-05-07T05:38:51;10.52;;;8.30;;
22270;SDS011;11304;53.520;10.104;2023-05-07T05:41:17;10.38;;;8.73;;
22270;SDS011;11304;53.520;10.104;2023-05-07T05:43:43;10.75;;;8.80;;
22270;SDS011;11304;53.520;10.104;2023-05-07T05:46:09;11.43;;;8.35;;
22270;SDS011;11304;53.520;10.104;2023-05-07T05:48:36;11.82;;;8.27;;
22270;SDS011;11304;53.520;10.104;2023-05-07T05:51:02;12.52;;;9.32;;
22270;SDS011;11304;53.520;10.104;2023-05-07T05:53:29;13.05;;;8.68;;
22270;SDS011;11304;53.520;10.104;2023-05-07T05:55:55;12.73;;;8.85;;
22270;SDS011;11304;53.520;10.104;2023-05-07T05:58:21;10.63;;;9.00;;
22270;SDS011;11304;53.520;10.104;2023-05-07T06:00:47;10.40;;;8.73;;
22270;SDS011;11304;53.520;10.104;2023-05-07T06:03:13;12.30;;;8.75;;
22270;SDS011;11304;53.520;10.104;2023-05-07T06:05:39;14.50;;;8.65;;
22270;SDS011;11304;53.520;10.104;2023-05-07T06:08:05;9.88;;;7.95;;
22270;SDS011;11304;53.520;10.104;2023-05-07T06:10:31;9.68;;;7.82;;
22270;SDS011;11304;53.520;10.104;2023-05-07T06:12:57;11.00;;;8.65;;
22270;SDS011;11304;53.520;10.104;2023-05-07T06:15:24;11.93;;;8.18;;
22270;SDS011;11304;53.520;10.104;2023-05-07T06:17:50;10.30;;;8.55;;
22270;SDS011;11304;53.520;10.104;2023-05-07T06:20:16;10.30;;;8.35;;
22270;SDS011;11304;53.520;10.104;2023-05-07T06:22:42;12.70;;;9.00;;
22270;SDS011;11304;53.520;10.104;2023-05-07T06:25:08;11.88;;;9.10;;
22270;SDS011;11304;53.520;10.104;2023-05-07T06:27:34;11.43;;;8.30;;
22270;SDS011;11304;53.520;10.104;2023-05-07T06:30:00;10.40;;;8.50;;
22270;SDS011;11304;53.520;10.104;2023-05-07T06:32:27;11.38;;;8.80;;
22270;SDS011;11304;53.520;10.104;2023-05-07T06:34:53;11.45;;;9.48;;
22270;SDS011;11304;53.520;10.104;2023-05-07T06:37:19;10.32;;;8.45;;
22270;SDS011;11304;53.520;10.104;2023-05-07T06:39:45;10.52;;;8.48;;
22270;SDS011;11304;53.520;10.104;2023-05-07T06:42:11;13.65;;;8.48;;
22270;SDS011;11304;53.520;10.104;2023-05-07T06:44:37;10.77;;;9.10;;
22270;SDS011;11304;53.520;10.104;2023-05-07T06:47:03;13.82;;;9.00;;
22270;SDS011;11304;53.520;10.104;2023-05-07T06:49:30;9.77;;;7.90;;
22270;SDS011;11304;53.520;10.104;2023-05-07T06:51:56;10.32;;;8.20;;
22270;SDS011;11304;53.520;10.104;2023-05-07T06:54:22;10.38;;;7.60;;
22270;SDS011;11304;53.520;10.104;2023-05-07T06:56:48;9.35;;;7.32;;
22270;SDS011;11304;53.520;10.104;2023-05-07T06:59:15;10.43;;;7.70;;
22270;SDS011;11304;53.520;10.104;2023-05-07T07:01:41;9.95;;;7.05;;
22270;SDS011;11304;53.520;10.104;2023-05-07T07:04:07;10.05;;;7.30;;
22270;SDS011;11304;53.520;10.104;2023-05-07T07:06:33;9.10;;;7.47;;
22270;SDS011;11304;53.520;10.104;2023-05-07T07:08:59;9.57;;;7.72;;
22270;SDS011;11304;53.520;10.104;2023-05-07T07:11:26;9.30;;;7.10;;
22270;SDS011;11304;53.520;10.104;2023-05-07T07:13:52;9.23;;;7.30;;
22270;SDS011;11304;53.520;10.104;2023-05-07T07:16:19;10.70;;;7.05;;
22270;SDS011;11304;53.520;10.104;2023-05-07T07:18:45;8.50;;;6.78;;
22270;SDS011;11304;53.520;10.104;2023-05-07T07:21:12;8.18;;;6.45;;
22270;SDS011;11304;53.520;10.104;2023-05-07T07:23:38;9.70;;;6.57;;
22270;SDS011;11304;53.520;10.104;2023-05-07T07:26:04;8.63;;;6.75;;
22270;SDS011;11304;53.520;10.104;2023-05-07T07:28:31;8.27;;;6.28;;
22270;SDS011;11304;53.520;10.104;2023-05-07T07:30:57;9.75;;;7.30;;
22270;SDS011;11304;53.520;10.104;2023-05-07T07:33:23;10.45;;;7.00;;
22270;SDS011;11304;53.520;10.104;2023-05-07T07:35:49;10.32;;;7.30;;
22270;SDS011;11304;53.520;10.104;2023-05-07T07:38:16;8.38;;;6.78;;
22270;SDS011;11304;53.520;10.104;2023-05-07T07:40:42;8.18;;;6.18;;
22270;SDS011;11304;53.520;10.104;2023-05-07T07:43:09;8.48;;;6.57;;
22270;SDS011;11304;53.520;10.104;2023-05-07T07:45:35;9.75;;;6.85;;
22270;SDS011;11304;53.520;10.104;2023-05-07T07:48:01;7.50;;;6.32;;
22270;SDS011;11304;53.520;10.104;2023-05-07T07:50:27;7.22;;;6.18;;
22270;SDS011;11304;53.520;10.104;2023-05-07T07:52:53;9.98;;;6.60;;
22270;SDS011;11304;53.520;10.104;2023-05-07T07:55:20;7.03;;;6.10;;
22270;SDS011;11304;53.520;10.104;2023-05-07T07:57:48;7.80;;;6.10;;
22270;SDS011;11304;53.520;10.104;2023-05-07T08:00:14;6.90;;;6.10;;
22270;SDS011;11304;53.520;10.104;2023-05-07T08:02:41;9.18;;;5.97;;
22270;SDS011;11304;53.520;10.104;2023-05-07T08:05:07;7.70;;;6.25;;
22270;SDS011;11304;53.520;10.104;2023-05-07T08:07:33;7.68;;;6.43;;
22270;SDS011;11304;53.520;10.104;2023-05-07T08:09:59;7.07;;;5.95;;
22270;SDS011;11304;53.520;10.104;2023-05-07T08:12:26;7.65;;;6.10;;
22270;SDS011;11304;53.520;10.104;2023-05-07T08:14:52;7.95;;;5.63;;
22270;SDS011;11304;53.520;10.104;2023-05-07T08:17:18;8.45;;;6.13;;
22270;SDS011;11304;53.520;10.104;2023-05-07T08:22:13;7.55;;;5.78;;
22270;SDS011;11304;53.520;10.104;2023-05-07T08:24:39;7.82;;;6.35;;
22270;SDS011;11304;53.520;10.104;2023-05-07T08:27:05;8.23;;;6.25;;
22270;SDS011;11304;53.520;10.104;2023-05-07T08:29:31;7.85;;;6.40;;
22270;SDS011;11304;53.520;10.104;2023-05-07T08:31:58;6.75;;;5.82;;
22270;SDS011;11304;53.520;10.104;2023-05-07T08:34:24;7.35;;;6.50;;
22270;SDS011;11304;53.520;10.104;2023-05-07T08:36:50;10.07;;;6.65;;
22270;SDS011;11304;53.520;10.104;2023-05-07T08:39:16;9.85;;;7.30;;
22270;SDS011;11304;53.520;10.104;2023-05-07T08:41:44;9.07;;;6.78;;
22270;SDS011;11304;53.520;10.104;2023-05-07T08:44:13;8.48;;;7.05;;
22270;SDS011;11304;53.520;10.104;2023-05-07T08:46:39;9.68;;;7.35;;
22270;SDS011;11304;53.520;10.104;2023-05-07T08:49:07;8.50;;;7.13;;
22270;SDS011;11304;53.520;10.104;2023-05-07T08:51:33;9.02;;;6.60;;
22270;SDS011;11304;53.520;10.104;2023-05-07T08:54:00;10.70;;;6.95;;
22270;SDS011;11304;53.520;10.104;2023-05-07T08:56:27;7.95;;;6.68;;
22270;SDS011;11304;53.520;10.104;2023-05-07T08:58:53;8.35;;;6.30;;
22270;SDS011;11304;53.520;10.104;2023-05-07T09:01:23;9.65;;;6.30;;
22270;SDS011;11304;53.520;10.104;2023-05-07T09:03:50;7.72;;;6.78;;
22270;SDS011;11304;53.520;10.104;2023-05-07T09:06:17;10.73;;;6.55;;
22270;SDS011;11304;53.520;10.104;2023-05-07T09:08:50;8.77;;;6.32;;
22270;SDS011;11304;53.520;10.104;2023-05-07T09:11:19;8.45;;;6.05;;
22270;SDS011;11304;53.520;10.104;2023-05-07T09:13:46;8.23;;;5.93;;
22270;SDS011;11304;53.520;10.104;2023-05-07T09:16:12;7.80;;;5.53;;
22270;SDS011;11304;53.520;10.104;2023-05-07T09:18:42;9.00;;;5.68;;
22270;SDS011;11304;53.520;10.104;2023-05-07T09:21:11;8.20;;;6.22;;
22270;SDS011;11304;53.520;10.104;2023-05-07T09:23:40;6.68;;;5.28;;
22270;SDS011;11304;53.520;10.104;2023-05-07T09:26:07;7.60;;;6.13;;
22270;SDS011;11304;53.520;10.104;2023-05-07T09:28:42;8.27;;;5.95;;
22270;SDS011;11304;53.520;10.104;2023-05-07T09:31:09;7.78;;;6.13;;
22270;SDS011;11304;53.520;10.104;2023-05-07T09:33:35;8.60;;;6.35;;
22270;SDS011;11304;53.520;10.104;2023-05-07T09:36:02;6.90;;;5.78;;
22270;SDS011;11304;53.520;10.104;2023-05-07T09:38:28;9.52;;;6.43;;
22270;SDS011;11304;53.520;10.104;2023-05-07T09:41:04;8.10;;;6.15;;
22270;SDS011;11304;53.520;10.104;2023-05-07T09:43:34;10.13;;;6.43;;
22270;SDS011;11304;53.520;10.104;2023-05-07T09:46:07;5.93;;;5.25;;
22270;SDS011;11304;53.520;10.104;2023-05-07T09:48:37;7.30;;;6.10;;
22270;SDS011;11304;53.520;10.104;2023-05-07T09:51:06;7.00;;;5.85;;
22270;SDS011;11304;53.520;10.104;2023-05-07T09:53:34;7.88;;;6.05;;
22270;SDS011;11304;53.520;10.104;2023-05-07T09:56:00;8.02;;;5.75;;
22270;SDS011;11304;53.520;10.104;2023-05-07T09:58:27;7.45;;;6.15;;
22270;SDS011;11304;53.520;10.104;2023-05-07T10:00:53;7.15;;;5.95;;
22270;SDS011;11304;53.520;10.104;2023-05-07T10:03:20;9.18;;;6.35;;
22270;SDS011;11304;53.520;10.104;2023-05-07T10:05:48;10.83;;;6.63;;
22270;SDS011;11304;53.520;10.104;2023-05-07T10:08:15;6.57;;;5.72;;
22270;SDS011;11304;53.520;10.104;2023-05-07T10:10:41;8.15;;;5.70;;
22270;SDS011;11304;53.520;10.104;2023-05-07T10:13:08;8.35;;;6.00;;
22270;SDS011;11304;53.520;10.104;2023-05-07T10:15:36;6.68;;;5.53;;
22270;SDS011;11304;53.520;10.104;2023-05-07T10:18:03;7.97;;;5.50;;
22270;SDS011;11304;53.520;10.104;2023-05-07T10:20:29;6.57;;;4.97;;
22270;SDS011;11304;53.520;10.104;2023-05-07T10:22:55;6.45;;;5.40;;
22270;SDS011;11304;53.520;10.104;2023-05-07T10:25:24;7.82;;;5.82;;
22270;SDS011;11304;53.520;10.104;2023-05-07T10:27:51;7.88;;;5.47;;
22270;SDS011;11304;53.520;10.104;2023-05-07T10:32:51;6.38;;;5.60;;
22270;SDS011;11304;53.520;10.104;2023-05-07T10:35:26;9.00;;;5.22;;
22270;SDS011;11304;53.520;10.104;2023-05-07T10:37:52;6.03;;;5.00;;
22270;SDS011;11304;53.520;10.104;2023-05-07T10:40:19;6.90;;;5.18;;
22270;SDS011;11304;53.520;10.104;2023-05-07T10:42:59;6.95;;;5.38;;
22270;SDS011;11304;53.520;10.104;2023-05-07T10:45:26;7.93;;;5.30;;
22270;SDS011;11304;53.520;10.104;2023-05-07T10:50:37;5.55;;;4.75;;
22270;SDS011;11304;53.520;10.104;2023-05-07T10:53:25;9.63;;;5.05;;
22270;SDS011;11304;53.520;10.104;2023-05-07T10:58:37;5.80;;;4.95;;
22270;SDS011;11304;53.520;10.104;2023-05-07T11:01:03;6.82;;;5.18;;
22270;SDS011;11304;53.520;10.104;2023-05-07T11:03:29;6.90;;;4.43;;
22270;SDS011;11304;53.520;10.104;2023-05-07T11:06:12;7.07;;;4.88;;
22270;SDS011;11304;53.520;10.104;2023-05-07T11:08:57;7.40;;;5.13;;
22270;SDS011;11304;53.520;10.104;2023-05-07T11:14:08;5.20;;;4.55;;
22270;SDS011;11304;53.520;10.104;2023-05-07T11:16:34;6.80;;;4.85;;
22270;SDS011;11304;53.520;10.104;2023-05-07T11:19:01;6.57;;;4.78;;
22270;SDS011;11304;53.520;10.104;2023-05-07T11:21:37;8.93;;;4.93;;
22270;SDS011;11304;53.520;10.104;2023-05-07T11:24:04;5.65;;;4.47;;
22270;SDS011;11304;53.520;10.104;2023-05-07T11:26:40;6.93;;;4.80;;
22270;SDS011;11304;53.520;10.104;2023-05-07T11:29:10;7.03;;;4.40;;
22270;SDS011;11304;53.520;10.104;2023-05-07T11:31:37;6.55;;;4.70;;
22270;SDS011;11304;53.520;10.104;2023-05-07T11:34:03;7.15;;;4.30;;
22270;SDS011;11304;53.520;10.104;2023-05-07T11:36:30;5.63;;;4.40;;
22270;SDS011;11304;53.520;10.104;2023-05-07T11:38:57;8.23;;;4.50;;
22270;SDS011;11304;53.520;10.104;2023-05-07T11:41:32;6.80;;;4.43;;
22270;SDS011;11304;53.520;10.104;2023-05-07T11:43:59;6.35;;;3.92;;
22270;SDS011;11304;53.520;10.104;2023-05-07T11:46:26;5.25;;;4.03;;
22270;SDS011;11304;53.520;10.104;2023-05-07T11:48:52;5.93;;;4.35;;
22270;SDS011;11304;53.520;10.104;2023-05-07T11:51:20;5.97;;;3.97;;
22270;SDS011;11304;53.520;10.104;2023-05-07T11:53:46;4.65;;;3.80;;
22270;SDS011;11304;53.520;10.104;2023-05-07T11:56:13;4.57;;;3.55;;
22270;SDS011;11304;53.520;10.104;2023-05-07T11:58:40;5.78;;;3.95;;
22270;SDS011;11304;53.520;10.104;2023-05-07T12:01:10;5.20;;;3.90;;
22270;SDS011;11304;53.520;10.104;2023-05-07T12:03:37;4.78;;;3.60;;
22270;SDS011;11304;53.520;10.104;2023-05-07T12:06:06;5.53;;;3.10;;
22270;SDS011;11304;53.520;10.104;2023-05-07T12:08:32;5.97;;;3.50;;
22270;SDS011;11304;53.520;10.104;2023-05-07T12:10:58;5.85;;;3.10;;
22270;SDS011;11304;53.520;10.104;2023-05-07T12:13:25;4.20;;;2.80;;
22270;SDS011;11304;53.520;10.104;2023-05-07T12:15:52;4.10;;;2.88;;
22270;SDS011;11304;53.520;10.104;2023-05-07T12:18:18;4.82;;;3.08;;
22270;SDS011;11304;53.520;10.104;2023-05-07T12:20:44;4.13;;;2.72;;
22270;SDS011;11304;53.520;10.104;2023-05-07T12:23:11;3.95;;;3.17;;
22270;SDS011;11304;53.520;10.104;2023-05-07T12:25:38;6.63;;;3.20;;
22270;SDS011;11304;53.520;10.104;2023-05-07T12:28:05;4.35;;;3.05;;
22270;SDS011;11304;53.520;10.104;2023-05-07T12:30:31;4.10;;;3.00;;
22270;SDS011;11304;53.520;10.104;2023-05-07T12:32:58;3.60;;;2.53;;
22270;SDS011;11304;53.520;10.104;2023-05-07T12:35:28;5.28;;;2.78;;
22270;SDS011;11304;53.520;10.104;2023-05-07T12:37:55;4.20;;;2.75;;
22270;SDS011;11304;53.520;10.104;2023-05-07T12:40:21;3.75;;;3.35;;
22270;SDS011;11304;53.520;10.104;2023-05-07T12:42:47;4.32;;;3.72;;
22270;SDS011;11304;53.520;10.104;2023-05-07T12:45:19;3.90;;;2.70;;
22270;SDS011;11304;53.520;10.104;2023-05-07T12:47:46;4.40;;;3.00;;
22270;SDS011;11304;53.520;10.104;2023-05-07T12:50:13;4.35;;;2.40;;
22270;SDS011;11304;53.520;10.104;2023-05-07T12:52:39;3.08;;;2.75;;
22270;SDS011;11304;53.520;10.104;2023-05-07T12:55:06;5.85;;;2.90;;
22270;SDS011;11304;53.520;10.104;2023-05-07T12:57:39;3.08;;;2.60;;
22270;SDS011;11304;53.520;10.104;2023-05-07T13:00:06;7.10;;;2.97;;
22270;SDS011;11304;53.520;10.104;2023-05-07T13:02:33;4.32;;;2.90;;
22270;SDS011;11304;53.520;10.104;2023-05-07T13:05:00;4.25;;;2.90;;
22270;SDS011;11304;53.520;10.104;2023-05-07T13:07:26;5.10;;;2.72;;
22270;SDS011;11304;53.520;10.104;2023-05-07T13:09:53;3.60;;;3.20;;
22270;SDS011;11304;53.520;10.104;2023-05-07T13:12:19;5.38;;;3.38;;
22270;SDS011;11304;53.520;10.104;2023-05-07T13:14:45;3.78;;;2.95;;
22270;SDS011;11304;53.520;10.104;2023-05-07T13:17:11;4.20;;;3.17;;
22270;SDS011;11304;53.520;10.104;2023-05-07T13:19:37;4.88;;;3.25;;
22270;SDS011;11304;53.520;10.104;2023-05-07T13:22:03;5.38;;;3.05;;
22270;SDS011;11304;53.520;10.104;2023-05-07T13:24:30;3.65;;;2.60;;
22270;SDS011;11304;53.520;10.104;2023-05-07T13:26:56;4.22;;;2.53;;
22270;SDS011;11304;53.520;10.104;2023-05-07T13:29:22;3.85;;;2.55;;
22270;SDS011;11304;53.520;10.104;2023-05-07T13:31:53;3.67;;;2.30;;
22270;SDS011;11304;53.520;10.104;2023-05-07T13:34:20;5.32;;;2.72;;
22270;SDS011;11304;53.520;10.104;2023-05-07T13:36:46;4.55;;;2.78;;
22270;SDS011;11304;53.520;10.104;2023-05-07T13:39:12;6.07;;;2.47;;
22270;SDS011;11304;53.520;10.104;2023-05-07T13:41:39;3.58;;;2.15;;
22270;SDS011;11304;53.520;10.104;2023-05-07T13:44:05;5.35;;;2.80;;
22270;SDS011;11304;53.520;10.104;2023-05-07T13:46:31;2.83;;;2.30;;
22270;SDS011;11304;53.520;10.104;2023-05-07T13:48:57;3.22;;;2.10;;
22270;SDS011;11304;53.520;10.104;2023-05-07T13:51:23;5.53;;;2.45;;
22270;SDS011;11304;53.520;10.104;2023-05-07T13:53:49;3.72;;;2.30;;
22270;SDS011;11304;53.520;10.104;2023-05-07T13:56:15;2.92;;;2.25;;
22270;SDS011;11304;53.520;10.104;2023-05-07T13:58:41;2.75;;;2.00;;
22270;SDS011;11304;53.520;10.104;2023-05-07T14:01:08;3.58;;;2.50;;
22270;SDS011;11304;53.520;10.104;2023-05-07T14:03:34;3.38;;;1.92;;
22270;SDS011;11304;53.520;10.104;2023-05-07T14:06:02;2.92;;;1.98;;
22270;SDS011;11304;53.520;10.104;2023-05-07T14:08:29;3.33;;;1.80;;
22270;SDS011;11304;53.520;10.104;2023-05-07T14:10:55;4.97;;;2.17;;
22270;SDS011;11304;53.520;10.104;2023-05-07T14:13:21;2.08;;;1.80;;
22270;SDS011;11304;53.520;10.104;2023-05-07T14:15:47;7.35;;;1.75;;
22270;SDS011;11304;53.520;10.104;2023-05-07T14:18:14;3.72;;;2.10;;
22270;SDS011;11304;53.520;10.104;2023-05-07T14:20:40;2.65;;;2.00;;
22270;SDS011;11304;53.520;10.104;2023-05-07T14:23:08;2.85;;;2.15;;
22270;SDS011;11304;53.520;10.104;2023-05-07T14:25:35;2.95;;;1.95;;
22270;SDS011;11304;53.520;10.104;2023-05-07T14:28:01;2.95;;;1.88;;
22270;SDS011;11304;53.520;10.104;2023-05-07T14:30:27;3.10;;;1.98;;
22270;SDS011;11304;53.520;10.104;2023-05-07T14:32:53;1.80;;;1.63;;
22270;SDS011;11304;53.520;10.104;2023-05-07T14:35:19;3.20;;;1.90;;
22270;SDS011;11304;53.520;10.104;2023-05-07T14:37:45;5.38;;;2.17;;